Terminal Aerodrome Forecast
Issued by NWS

Home | Current Version | Previous Version | Text Only | Print | Product List | Glossary On
Versions: 1 2 3 4 5 6 7 8 9 10 11 12 13 14 15 16
000
FTUS45 KTFX 162343
TAFGTF
TAF
KGTF 162343Z 1700/1724 23020G28KT P6SM SKC
     FM170100 21015G22KT P6SM SKC WS020/26035KT
     FM171500 22023G32KT P6SM FEW110 SCT200
     FM171800 23030G40KT P6SM FEW110 BKN200=

USA.gov is the U.S. government's official web portal to all federal, state and local government web resources and services.